Time;durP1;ratioP1;P1;durP2;ratioP2;P2;SDS_P1;SDS_P2;PMS_P1;PMS_P2;Temp;Humidity;BMP_temperature;BMP_pressure;BME280_temperature;BME280_humidity;BME280_pressure;Samples;Min_cycle;Max_cycle;Signal;HPM_P1;HPM_P2
2022/02/03 00:00:22;;;;;;;43.45;20.88;;;;;;;-0.69;60.21;100510.75;1791704;79;25635;-58
2022/02/03 00:08:52;;;;;;;36.90;18.02;;;;;;;-0.66;60.35;100526.44;1792564;79;25656;-59
2022/02/03 00:16:56;;;;;;;40.08;18.87;;;;;;;-0.61;60.27;100539.44;1790865;80;28617;-59
2022/02/03 00:22:12;;;;;;;39.40;19.02;;;;;;;-0.62;60.26;100544.80;1731163;80;25567;-59
2022/02/03 00:25:04;;;;;;;40.20;18.62;;;;;;;-0.60;60.32;100547.76;1794528;79;25821;-59
2022/02/03 00:28:11;;;;;;;38.30;19.05;;;;;;;-0.60;60.32;100541.63;1786998;78;25468;-59
2022/02/03 00:33:17;;;;;;;39.03;20.35;;;;;;;-0.65;60.62;100537.88;1795612;79;25836;-59
2022/02/03 00:49:14;;;;;;;46.42;20.37;;;;;;;-0.48;60.55;100558.22;1815556;78;25779;-58
2022/02/03 00:51:49;;;;;;;45.98;20.10;;;;;;;-0.47;60.51;100559.95;1811732;79;25830;-58
2022/02/03 00:54:12;;;;;;;41.28;20.27;;;;;;;-0.45;60.39;100563.86;1810652;79;25838;-58
2022/02/03 00:56:44;;;;;;;46.68;19.67;;;;;;;-0.43;60.47;100560.21;1812074;79;27451;-58
2022/02/03 00:59:14;;;;;;;44.58;20.65;;;;;;;-0.45;60.31;100563.86;1812422;79;25820;-58
2022/02/03 01:01:49;;;;;;;42.43;19.87;;;;;;;-0.45;60.34;100562.06;1811983;79;25734;-58
2022/02/03 01:04:17;;;;;;;52.43;18.92;;;;;;;-0.45;60.24;100558.58;1812304;79;25785;-58
2022/02/03 01:06:53;;;;;;;43.13;18.48;;;;;;;-0.40;60.55;100567.13;1812027;78;25726;-58
2022/02/03 01:09:21;;;;;;;;;;;;;;;-0.39;60.59;100568.38;1814801;79;27459;-58
2022/02/03 01:11:58;;;;;;;39.95;18.50;;;;;;;-0.35;60.71;100571.28;1811871;78;25624;-58
2022/02/03 01:14:35;;;;;;;44.90;19.73;;;;;;;-0.31;60.58;100574.64;1811976;78;25746;-58
2022/02/03 01:17:07;;;;;;;41.10;18.23;;;;;;;-0.30;60.58;100580.77;1793710;79;25878;-58
2022/02/03 01:20:12;;;;;;;42.17;17.87;;;;;;;-0.28;60.67;100581.56;1821374;78;25726;-58
2022/02/03 01:44:15;;;;;;;37.58;17.85;;;;;;;-0.19;60.87;100614.18;1802915;78;27901;-58
2022/02/03 01:46:48;;;;;;;39.25;19.12;;;;;;;-0.18;60.88;100624.67;1798235;79;26659;-58
2022/02/03 01:49:11;;;;;;;39.80;17.77;;;;;;;-0.14;60.79;100630.71;1802722;78;27477;-58
2022/02/03 01:51:42;;;;;;;44.93;19.15;;;;;;;-0.11;60.95;100633.19;1787340;78;34842;-58
2022/02/03 01:54:07;;;;;;;39.78;18.17;;;;;;;-0.16;60.92;100637.37;1818510;78;25710;-58
2022/02/03 01:56:53;;;;;;;37.93;17.87;;;;;;;-0.17;61.23;100641.42;1819287;78;25786;-59
2022/02/03 01:59:24;;;;;;;42.30;19.55;;;;;;;-0.21;61.04;100642.47;1818966;78;25728;-58
2022/02/03 02:01:57;;;;;;;40.73;19.02;;;;;;;-0.20;61.35;100650.36;1819439;78;28121;-58
2022/02/03 02:04:43;;;;;;;;;;;;;;;-0.17;61.42;100649.34;1821265;78;26352;-58
2022/02/03 02:07:38;;;;;;;36.68;16.00;;;;;;;-0.11;61.51;100649.53;1818823;78;25689;-58
2022/02/03 02:19:19;;;;;;;40.65;18.00;;;;;;;-0.07;61.18;100650.64;1819108;78;25781;-59
2022/02/03 02:43:56;;;;;;;39.33;16.10;;;;;;;-0.15;62.34;100685.84;1812249;77;27461;-59
2022/02/03 02:46:37;;;;;;;33.70;16.95;;;;;;;-0.08;62.83;100688.59;1812031;79;25753;-59
2022/02/03 02:49:14;;;;;;;32.23;13.93;;;;;;;-0.03;62.75;100692.35;1806204;78;25702;-58
2022/02/03 02:52:05;;;;;;;30.15;12.13;;;;;;;-0.01;62.75;100701.92;1823024;78;25807;-58
2022/02/03 02:55:10;;;;;;;25.80;13.13;;;;;;;0.04;63.04;100699.08;1821613;78;25844;-58
2022/02/03 03:00:38;;;;;;;26.07;12.58;;;;;;;0.13;62.88;100714.52;1822531;78;25830;-58
2022/02/03 03:03:21;;;;;;;29.23;13.18;;;;;;;0.18;62.88;100719.60;1818510;78;25551;-58
2022/02/03 03:36:08;;;;;;;28.65;14.68;;;;;;;0.48;62.00;100751.31;1809710;79;25798;-59
2022/02/03 03:38:35;;;;;;;29.23;14.07;;;;;;;0.44;61.91;100747.52;1808228;77;28838;-59
2022/02/03 03:41:04;;;;;;;25.43;14.68;;;;;;;0.45;62.01;100765.56;1808857;79;25851;-59
2022/02/03 03:43:44;;;;;;;24.60;13.03;;;;;;;0.44;61.98;100762.07;1808782;79;25758;-59
2022/02/03 03:46:33;;;;;;;30.85;14.05;;;;;;;0.43;62.01;100760.34;1808566;79;25961;-59
2022/02/03 03:49:25;;;;;;;17.80;9.98;;;;;;;0.48;62.04;100764.55;1805651;79;25639;-59
2022/02/03 03:52:06;;;;;;;23.12;10.08;;;;;;;0.49;63.13;100760.98;1795365;79;29701;-59
2022/02/03 04:00:33;;;;;;;24.27;9.95;;;;;;;0.56;62.68;100784.45;1795458;79;25789;-59
2022/02/03 04:56:29;;;;;;;30.17;15.53;;;;;;;0.71;63.45;100867.62;1757672;79;25794;-59
2022/02/03 05:08:56;;;;;;;30.30;11.83;;;;;;;0.53;63.80;100882.53;1799022;79;25464;-58
2022/02/03 05:15:24;;;;;;;27.60;13.98;;;;;;;0.45;63.71;100897.91;1791763;79;26572;-59
2022/02/03 05:18:17;;;;;;;27.05;12.82;;;;;;;0.39;63.78;100901.67;1785174;80;25741;-59
2022/02/03 06:12:49;;;;;;;29.45;14.98;;;;;;;0.41;66.65;100989.81;1807001;78;25761;-59
2022/02/03 06:14:59;;;;;;;37.15;12.95;;;;;;;0.39;66.56;100998.28;1781184;78;25742;-59
2022/02/03 06:22:44;;;;;;;24.37;11.93;;;;;;;0.38;66.63;101004.97;1786660;80;25811;-59
2022/02/03 06:27:41;;;;;;;26.55;11.97;;;;;;;0.39;66.58;101006.70;1819013;78;26333;-60
2022/02/03 06:30:11;;;;;;;19.85;11.15;;;;;;;0.40;66.57;101010.59;1818939;78;27167;-59
2022/02/03 06:32:40;;;;;;;22.98;12.58;;;;;;;0.50;66.50;101021.64;1819085;78;25528;-59
2022/02/03 06:35:12;;;;;;;21.50;12.28;;;;;;;0.61;66.34;101019.87;1818754;78;26485;-59
2022/02/03 06:37:39;;;;;;;28.07;14.35;;;;;;;0.71;66.13;101019.00;1818748;78;25857;-58
2022/02/03 06:40:09;;;;;;;22.45;12.35;;;;;;;0.76;65.93;101019.68;1818818;78;25726;-59
2022/02/03 06:42:38;;;;;;;26.25;12.78;;;;;;;0.84;65.70;101021.97;1818628;78;28251;-59
2022/02/03 06:47:38;;;;;;;29.55;13.55;;;;;;;0.97;65.37;101023.61;1818496;78;25725;-59
2022/02/03 06:50:16;;;;;;;27.45;13.45;;;;;;;1.04;65.32;101019.31;1814984;78;25812;-59
2022/02/03 06:52:55;;;;;;;24.02;12.60;;;;;;;1.16;65.10;101024.52;1817213;78;25653;-59
2022/02/03 06:57:59;;;;;;;29.07;14.50;;;;;;;1.32;64.62;101022.48;1759144;81;25724;-59
2022/02/03 07:00:36;;;;;;;31.68;15.68;;;;;;;1.37;64.33;101021.83;1758369;81;25735;-59
2022/02/03 07:03:02;;;;;;;28.67;13.90;;;;;;;1.38;64.12;101022.22;1758416;81;26493;-59
2022/02/03 07:05:29;;;;;;;23.12;14.00;;;;;;;1.34;64.01;101036.09;1763783;80;25673;-60
2022/02/03 07:07:56;;;;;;;26.17;13.95;;;;;;;1.38;64.03;101044.75;1786492;80;27572;-59
2022/02/03 07:10:23;;;;;;;38.53;14.45;;;;;;;1.46;63.90;101047.03;1759745;80;25890;-59
2022/02/03 07:12:51;;;;;;;26.75;13.50;;;;;;;1.54;63.81;101051.06;1785300;80;25750;-58
2022/02/03 07:15:18;;;;;;;25.95;14.40;;;;;;;1.65;63.71;101047.06;1780540;80;26465;-58
2022/02/03 07:17:46;;;;;;;24.15;12.70;;;;;;;1.78;63.50;101056.14;1789403;80;25896;-59
2022/02/03 07:20:14;;;;;;;27.62;14.45;;;;;;;1.94;62.98;101059.38;1790799;80;27465;-59
2022/02/03 07:22:42;;;;;;;25.82;14.50;;;;;;;2.10;62.91;101061.72;1790611;80;25822;-59
2022/02/03 07:25:11;;;;;;;24.10;12.20;;;;;;;2.23;62.57;101056.67;1790141;80;26363;-59
2022/02/03 07:27:38;;;;;;;17.87;10.20;;;;;;;2.38;62.00;101065.64;1790705;80;25762;-59
2022/02/03 07:30:07;;;;;;;19.57;11.35;;;;;;;2.54;61.56;101047.64;1787289;80;25727;-59
2022/02/03 07:32:34;;;;;;;22.87;12.00;;;;;;;2.60;61.06;101056.12;1786163;80;27440;-59
2022/02/03 07:35:00;;;;;;;24.70;10.65;;;;;;;2.69;61.26;101053.49;1755922;81;25742;-59
2022/02/03 07:37:28;;;;;;;19.77;11.05;;;;;;;2.73;60.69;101055.06;1756427;81;25507;-59
2022/02/03 07:39:57;;;;;;;18.82;9.98;;;;;;;2.80;60.87;101056.91;1756132;81;26487;-59
2022/02/03 07:42:24;;;;;;;21.27;10.45;;;;;;;2.85;60.30;101067.31;1781684;80;25750;-59
2022/02/03 07:44:51;;;;;;;23.42;11.08;;;;;;;2.88;60.49;101067.16;1787561;80;27451;-59
2022/02/03 07:47:18;;;;;;;22.60;11.10;;;;;;;2.98;60.60;101064.42;1784504;80;25708;-59
2022/02/03 07:49:45;;;;;;;21.52;11.22;;;;;;;3.06;60.42;101061.34;1776652;80;25743;-59
2022/02/03 07:52:12;;;;;;;22.32;11.35;;;;;;;3.15;60.35;101068.83;1782399;80;25803;-59
2022/02/03 07:54:40;;;;;;;23.62;11.00;;;;;;;3.16;60.19;101069.71;1784729;80;25769;-59
2022/02/03 07:57:06;;;;;;;18.98;11.08;;;;;;;3.19;60.01;101074.39;1780632;80;27475;-59
2022/02/03 07:59:34;;;;;;;19.05;10.72;;;;;;;3.26;60.01;101080.25;1787905;80;25785;-60
2022/02/03 08:02:01;;;;;;;28.95;12.33;;;;;;;3.31;59.97;101087.50;1789898;80;26156;-59
2022/02/03 08:04:31;;;;;;;23.25;10.40;;;;;;;3.29;59.84;101092.91;1784468;80;25890;-59
2022/02/03 08:06:57;;;;;;;21.27;8.78;;;;;;;3.29;59.60;101093.36;1786086;80;26341;-58
2022/02/03 08:09:41;;;;;;;18.92;9.08;;;;;;;3.29;59.60;101091.58;1781494;80;28560;-59
2022/02/03 08:11:57;;;;;;;18.85;10.08;;;;;;;3.30;59.49;101089.77;1779707;80;25730;-59
2022/02/03 08:14:35;;;;;;;21.65;10.58;;;;;;;3.31;59.24;101095.97;1776108;80;25793;-59
2022/02/03 08:17:02;;;;;;;16.67;9.15;;;;;;;3.25;59.02;101093.16;1788605;80;25758;-59
2022/02/03 08:19:31;;;;;;;21.90;8.65;;;;;;;3.18;58.88;101097.08;1789629;80;25893;-60
2022/02/03 08:22:02;;;;;;;15.65;8.03;;;;;;;3.22;59.15;101114.58;1789259;80;27491;-59
2022/02/03 08:24:29;;;;;;;20.20;11.03;;;;;;;3.18;58.89;101115.20;1771642;80;25806;-60
2022/02/03 08:32:01;;;;;;;16.65;8.60;;;;;;;3.18;59.00;101117.87;1789002;80;25422;-60
2022/02/03 08:34:56;;;;;;;13.00;8.38;;;;;;;3.24;59.06;101125.52;1783264;80;27585;-61
2022/02/03 08:36:51;;;;;;;31.07;11.25;;;;;;;3.28;58.81;101130.20;1774953;79;25754;-60
2022/02/03 08:39:20;;;;;;;17.57;9.40;;;;;;;3.29;58.79;101133.25;1780479;80;25757;-60
2022/02/03 08:41:46;;;;;;;16.60;8.40;;;;;;;3.33;58.84;101137.94;1777155;80;26471;-60
2022/02/03 08:44:13;;;;;;;20.77;9.45;;;;;;;3.31;58.78;101141.17;1782931;80;25795;-60
2022/02/03 08:46:40;;;;;;;15.68;8.95;;;;;;;3.31;58.67;101147.81;1785255;80;27469;-60
2022/02/03 08:49:07;;;;;;;20.52;10.30;;;;;;;3.27;58.62;101150.62;1775942;80;25765;-60
2022/02/03 08:51:34;;;;;;;22.52;12.00;;;;;;;3.20;58.67;101157.66;1775628;80;25698;-60
2022/02/03 08:54:11;;;;;;;19.95;9.40;;;;;;;3.19;58.75;101158.14;1758910;81;25841;-60
2022/02/03 08:56:52;;;;;;;16.55;9.80;;;;;;;3.24;58.59;101153.91;1786820;80;25984;-60
2022/02/03 09:35:40;;;;;;;15.50;8.55;;;;;;;3.17;61.39;101180.44;1779218;80;26141;-60
2022/02/03 09:38:01;;;;;;;17.98;9.30;;;;;;;3.19;61.52;101188.72;1764469;80;25771;-60
2022/02/03 09:54:28;;;;;;;16.10;10.08;;;;;;;3.11;62.57;101206.86;1814704;79;28352;-59
2022/02/03 09:59:12;;;;;;;18.52;9.55;;;;;;;3.32;62.32;101199.58;1810556;78;25694;-60
2022/02/03 10:01:43;;;;;;;25.00;11.22;;;;;;;3.31;62.22;101213.81;1808001;78;26715;-59
2022/02/03 10:04:16;;;;;;;17.48;9.63;;;;;;;3.29;62.20;101215.69;1792399;79;26065;-60
2022/02/03 10:06:52;;;;;;;25.40;10.40;;;;;;;3.32;62.40;101212.87;1794639;79;28131;-60
2022/02/03 10:09:11;;;;;;;19.42;11.33;;;;;;;3.30;62.26;101209.43;1812643;79;25734;-60
2022/02/03 10:11:38;;;;;;;25.17;11.08;;;;;;;3.33;62.31;101210.61;1814160;79;25538;-60
2022/02/03 10:14:05;;;;;;;21.10;11.55;;;;;;;3.42;62.14;101207.94;1814333;79;25814;-59
2022/02/03 10:16:35;;;;;;;21.17;11.48;;;;;;;3.48;62.02;101209.42;1814874;79;25683;-60
2022/02/03 10:19:16;;;;;;;16.77;10.65;;;;;;;3.59;61.97;101203.92;1805885;79;27571;-60
2022/02/03 10:21:47;;;;;;;25.32;11.78;;;;;;;3.62;61.83;101199.39;1792384;79;25820;-60
2022/02/03 10:24:17;;;;;;;18.90;10.45;;;;;;;3.66;61.82;101200.97;1793207;78;25674;-60
2022/02/03 10:26:49;;;;;;;17.77;9.88;;;;;;;3.68;61.70;101202.59;1784102;80;25886;-60
2022/02/03 10:29:28;;;;;;;19.92;9.95;;;;;;;3.68;61.52;101195.06;1783127;80;25758;-59
2022/02/03 10:31:54;;;;;;;15.63;9.13;;;;;;;3.69;61.17;101206.10;1768640;80;28221;-60
2022/02/03 10:34:27;;;;;;;23.10;11.05;;;;;;;3.71;61.20;101202.89;1802768;79;25434;-60
2022/02/03 10:37:06;;;;;;;19.95;11.00;;;;;;;3.69;60.87;101208.77;1802636;79;25706;-60
2022/02/03 10:50:59;;;;;;;14.38;9.43;;;;;;;4.20;59.70;101194.94;1767496;81;25793;-59
2022/02/03 10:53:40;;;;;;;25.55;9.35;;;;;;;4.04;59.20;101211.34;1765381;81;25832;-59
2022/02/03 11:07:00;;;;;;;16.60;9.45;;;;;;;3.64;59.50;101212.15;1767598;81;26470;-58
2022/02/03 11:09:36;;;;;;;15.80;8.58;;;;;;;3.97;58.32;101200.19;1766850;81;25578;-59
2022/02/03 11:11:57;;;;;;;13.00;7.83;;;;;;;4.70;55.92;101207.70;1765652;81;27463;-59
2022/02/03 11:14:25;;;;;;;22.62;9.83;;;;;;;5.99;53.18;101200.55;1767641;81;25808;-58
2022/02/03 11:16:53;;;;;;;21.52;8.78;;;;;;;6.67;51.36;101202.47;1767705;81;25722;-59
2022/02/03 11:19:26;;;;;;;15.58;7.65;;;;;;;7.30;48.36;101211.30;1767516;81;25804;-59
2022/02/03 11:22:02;;;;;;;11.70;7.65;;;;;;;7.20;48.35;101203.02;1767425;81;25836;-59
2022/02/03 11:24:28;;;;;;;12.18;8.45;;;;;;;7.74;47.54;101198.00;1765732;81;46249;-59
2022/02/03 11:35:39;;;;;;;19.40;9.80;;;;;;;10.34;39.96;101195.16;1767616;81;25641;-58
2022/02/03 11:51:24;;;;;;;9.85;5.42;;;;;;;8.72;39.68;101187.03;1753332;79;27540;-59
2022/02/03 11:54:02;;;;;;;11.08;5.60;;;;;;;9.31;39.33;101190.20;1791620;79;25752;-59
2022/02/03 12:14:02;;;;;;;10.45;5.20;;;;;;;7.19;39.83;101227.59;1747681;82;26136;-59
2022/02/03 12:16:39;;;;;;;12.13;4.87;;;;;;;6.88;40.51;101238.14;1750220;80;25823;-59
2022/02/03 12:19:18;;;;;;;15.40;6.28;;;;;;;6.49;41.17;101247.31;1749245;80;28176;-59
2022/02/03 12:21:44;;;;;;;9.78;6.35;;;;;;;6.02;42.45;101262.67;1749660;80;25802;-59
2022/02/03 12:24:39;;;;;;;9.03;5.80;;;;;;;5.62;43.89;101256.58;1733961;80;33228;-59
2022/02/03 12:27:14;;;;;;;12.93;6.50;;;;;;;5.43;44.82;101262.62;1685065;83;25829;-59
2022/02/03 12:29:49;;;;;;;10.78;4.95;;;;;;;5.59;45.19;101267.92;1730373;82;25892;-59
2022/02/03 12:33:04;;;;;;;18.48;5.55;;;;;;;5.73;44.21;101268.44;1735360;82;27400;-60
2022/02/03 12:43:01;;;;;;;11.25;5.83;;;;;;;5.70;42.57;101292.17;1765884;81;26346;-59
2022/02/03 12:45:30;;;;;;;8.95;4.92;;;;;;;5.91;42.86;101290.50;1740167;81;28810;-58
2022/02/03 12:48:04;;;;;;;9.05;5.92;;;;;;;6.04;42.29;101300.84;1766026;81;26198;-59
2022/02/03 12:50:37;;;;;;;7.17;4.12;;;;;;;6.20;42.73;101307.91;1766810;81;25731;-59
2022/02/03 12:53:06;;;;;;;21.70;5.35;;;;;;;6.35;41.54;101291.40;1766284;81;26494;-59
2022/02/03 12:55:41;;;;;;;9.48;4.85;;;;;;;6.36;41.10;101299.80;1735801;82;25759;-59
2022/02/03 12:58:17;;;;;;;8.00;4.40;;;;;;;6.49;41.29;101311.92;1735458;82;27551;-60
2022/02/03 13:00:58;;;;;;;12.45;4.35;;;;;;;6.78;41.46;101302.04;1735945;82;25997;-59
2022/02/03 13:03:31;;;;;;;8.63;4.40;;;;;;;6.83;40.23;101309.77;1735680;82;25811;-59
2022/02/03 13:06:04;;;;;;;8.40;4.05;;;;;;;6.58;39.85;101314.89;1735739;82;25766;-59
2022/02/03 13:08:54;;;;;;;8.53;3.80;;;;;;;6.37;39.97;101304.20;1735902;82;25569;-59
2022/02/03 13:11:35;;;;;;;11.63;3.83;;;;;;;6.01;39.71;101296.16;1735956;82;27044;-59
2022/02/03 13:14:23;;;;;;;10.03;4.17;;;;;;;5.93;39.90;101300.59;1755803;81;25802;-59
2022/02/03 13:16:52;;;;;;;14.50;4.17;;;;;;;5.78;39.89;101303.73;1746676;80;25760;-59
2022/02/03 13:19:30;;;;;;;9.23;4.85;;;;;;;5.44;40.33;101308.37;1759970;81;26506;-59
2022/02/03 13:22:12;;;;;;;6.90;4.22;;;;;;;5.07;40.86;101309.16;1743371;81;25754;-59
2022/02/03 13:27:03;;;;;;;15.68;5.33;;;;;;;4.65;41.79;101318.17;1728461;79;26336;-59
2022/02/03 13:29:36;;;;;;;12.18;5.05;;;;;;;4.41;42.59;101325.69;1794003;79;25825;-58
2022/02/03 13:32:12;;;;;;;7.85;4.33;;;;;;;4.27;42.91;101333.94;1770305;79;26390;-59
2022/02/03 13:34:49;;;;;;;7.83;4.22;;;;;;;4.15;43.24;101325.28;1790051;79;25830;-59
2022/02/03 13:37:28;;;;;;;13.38;4.53;;;;;;;4.02;43.44;101329.91;1775983;79;27602;-59
2022/02/03 13:40:10;;;;;;;8.90;4.67;;;;;;;3.87;43.78;101342.69;1807218;79;25645;-59
2022/02/03 13:42:43;;;;;;;11.70;5.45;;;;;;;3.80;44.29;101338.63;1776176;80;25718;-59
2022/02/03 13:45:09;;;;;;;19.70;5.70;;;;;;;3.72;44.88;101345.17;1810997;78;27894;-59
2022/02/03 13:47:37;;;;;;;8.25;4.40;;;;;;;3.75;44.99;101349.50;1783910;80;26073;-59
2022/02/03 13:50:16;;;;;;;11.28;3.85;;;;;;;3.80;44.73;101336.81;1814495;79;27450;-59
2022/02/03 13:52:52;;;;;;;7.83;5.25;;;;;;;3.85;44.51;101347.22;1809151;79;25678;-59
2022/02/03 14:21:02;;;;;;;11.20;4.10;;;;;;;2.86;45.83;101394.55;1797190;79;25946;-59
2022/02/03 14:28:41;;;;;;;12.98;5.17;;;;;;;2.60;47.10;101405.91;1765725;81;27329;-59
2022/02/03 14:31:09;;;;;;;12.45;5.05;;;;;;;2.41;47.63;101402.75;1766164;81;27059;-59
2022/02/03 14:33:40;;;;;;;8.78;5.33;;;;;;;2.25;48.20;101412.31;1776982;80;25881;-59
2022/02/03 14:36:09;;;;;;;13.22;5.22;;;;;;;2.13;48.35;101417.70;1769415;80;25708;-59
2022/02/03 14:38:45;;;;;;;9.28;4.95;;;;;;;2.01;48.80;101421.27;1768154;80;25821;-65
2022/02/03 14:41:13;;;;;;;8.78;4.12;;;;;;;1.88;49.44;101434.19;1782804;80;25793;-59
2022/02/03 14:47:53;;;;;;;14.15;4.50;;;;;;;1.77;49.82;101431.58;1772665;79;25719;-60
2022/02/03 14:50:21;;;;;;;6.17;4.17;;;;;;;1.75;49.98;101438.25;1772758;80;25834;-59
2022/02/03 14:52:57;;;;;;;7.20;4.50;;;;;;;1.71;50.47;101449.94;1765722;81;25785;-60
2022/02/03 14:58:20;;;;;;;6.85;3.22;;;;;;;1.72;49.79;101451.19;1752971;81;28168;-60
2022/02/03 15:00:45;;;;;;;10.88;3.92;;;;;;;1.66;48.86;101449.27;1748749;81;25779;-60
2022/02/03 15:03:11;;;;;;;6.72;3.83;;;;;;;1.62;48.61;101454.28;1749371;82;25717;-60
2022/02/03 15:05:39;;;;;;;9.40;3.70;;;;;;;1.61;48.15;101461.84;1759608;80;26769;-59
2022/02/03 15:08:17;;;;;;;6.15;3.55;;;;;;;1.51;48.21;101456.90;1783767;80;25871;-60
2022/02/03 15:13:19;;;;;;;10.72;4.42;;;;;;;1.35;49.21;101451.33;1797186;79;25671;-60
2022/02/03 15:15:44;;;;;;;8.95;3.50;;;;;;;1.29;49.53;101462.66;1783177;80;25850;-59
2022/02/03 15:18:11;;;;;;;16.17;5.58;;;;;;;1.19;49.88;101466.10;1787745;80;25823;-59
2022/02/03 15:20:38;;;;;;;10.68;3.77;;;;;;;1.07;50.45;101464.34;1787497;80;25746;-59
2022/02/03 15:23:07;;;;;;;7.22;4.05;;;;;;;1.04;50.48;101469.75;1787750;79;27408;-60
2022/02/03 15:25:34;;;;;;;6.72;4.33;;;;;;;1.03;50.67;101472.46;1770883;80;25742;-60
2022/02/03 15:28:02;;;;;;;8.50;4.12;;;;;;;1.02;50.71;101480.86;1793370;80;25730;-60
2022/02/03 15:30:30;;;;;;;13.55;6.30;;;;;;;1.01;50.59;101474.30;1794027;80;26676;-59
2022/02/03 15:32:57;;;;;;;8.18;4.65;;;;;;;1.03;50.88;101483.91;1791696;80;25818;-59
2022/02/03 15:35:35;;;;;;;7.85;4.58;;;;;;;1.03;50.84;101491.86;1791581;80;28307;-60
2022/02/03 15:37:57;;;;;;;7.25;4.00;;;;;;;0.98;50.85;101489.86;1789111;80;25742;-59
2022/02/03 15:40:27;;;;;;;9.95;4.75;;;;;;;0.92;50.74;101488.73;1791561;80;25808;-60
2022/02/03 15:43:00;;;;;;;7.42;3.47;;;;;;;0.89;50.91;101497.66;1791825;80;25847;-59
2022/02/03 15:45:23;;;;;;;11.97;4.17;;;;;;;0.86;50.74;101501.73;1792717;79;25981;-59
2022/02/03 15:47:57;;;;;;;10.93;4.40;;;;;;;0.80;50.85;101504.63;1794176;80;28183;-60
2022/02/03 16:01:27;;;;;;;7.80;3.75;;;;;;;0.59;50.66;101528.76;1771622;80;28235;-60
2022/02/03 16:17:15;;;;;;;7.17;3.75;;;;;;;0.35;50.43;101536.63;1791908;80;25662;-58
2022/02/03 16:22:22;;;;;;;8.13;3.70;;;;;;;0.26;50.44;101539.11;1793761;80;25769;-58
2022/02/03 16:24:57;;;;;;;11.18;4.60;;;;;;;0.21;50.40;101554.73;1783383;80;25775;-59
2022/02/03 16:54:10;;;;;;;6.92;4.12;;;;;;;0.01;51.17;101598.56;1762915;80;27452;-58
2022/02/03 16:56:33;;;;;;;9.88;4.12;;;;;;;0.06;51.21;101599.73;1762331;80;25680;-58
2022/02/03 16:59:00;;;;;;;9.30;4.92;;;;;;;0.06;51.09;101597.98;1762864;80;25795;-59
2022/02/03 17:01:27;;;;;;;11.12;5.10;;;;;;;0.05;51.03;101596.68;1763447;81;25761;-59
2022/02/03 17:03:55;;;;;;;12.00;5.28;;;;;;;0.01;51.11;101598.56;1765787;79;25495;-59
2022/02/03 17:06:23;;;;;;;12.73;6.12;;;;;;;-0.06;51.04;101593.94;1784775;80;27488;-58
2022/02/03 17:08:50;;;;;;;14.15;5.30;;;;;;;-0.13;51.23;101591.52;1785339;80;25805;-59
2022/02/03 17:11:17;;;;;;;12.00;7.12;;;;;;;-0.17;51.51;101598.69;1786949;80;25704;-59
2022/02/03 17:13:44;;;;;;;16.30;7.05;;;;;;;-0.24;51.48;101599.31;1785805;78;26490;-59
2022/02/03 17:16:14;;;;;;;20.75;8.45;;;;;;;-0.28;51.78;101603.42;1784044;80;25746;-59
2022/02/03 17:18:40;;;;;;;18.95;6.97;;;;;;;-0.32;51.96;101612.79;1784122;80;27487;-58
2022/02/03 17:21:07;;;;;;;22.48;9.40;;;;;;;-0.34;51.77;101606.67;1784033;80;25804;-59
2022/02/03 17:23:34;;;;;;;12.35;6.28;;;;;;;-0.34;51.97;101607.11;1784097;79;25953;-59
2022/02/03 17:26:23;;;;;;;15.80;6.87;;;;;;;-0.34;52.07;101608.44;1782992;79;25794;-59
2022/02/03 17:28:51;;;;;;;23.75;7.28;;;;;;;-0.38;52.21;101612.95;1761963;80;25811;-58
2022/02/03 17:31:22;;;;;;;14.05;6.53;;;;;;;-0.45;52.37;101612.72;1788282;80;27551;-59
2022/02/03 18:18:16;;;;;;;20.95;8.63;;;;;;;-0.69;52.93;101611.64;1750317;79;25841;-60
2022/02/03 18:31:17;;;;;;;20.15;7.28;;;;;;;-0.67;52.92;101627.00;1727545;82;25467;-59
2022/02/03 18:34:08;;;;;;;18.25;6.25;;;;;;;-0.66;52.74;101632.70;1724974;83;25819;-58
2022/02/03 18:36:32;;;;;;;11.88;6.12;;;;;;;-0.64;52.64;101622.97;1725274;82;25836;-58
2022/02/03 18:52:49;;;;;;;26.05;10.30;;;;;;;-0.30;52.40;101647.55;1790474;80;28300;-59
2022/02/03 18:57:38;;;;;;;26.20;11.30;;;;;;;-0.17;52.36;101643.64;1752231;80;25897;-58
2022/02/03 19:00:28;;;;;;;18.50;7.60;;;;;;;-0.10;52.44;101635.08;1789858;80;26547;-58
2022/02/03 19:20:47;;;;;;;19.50;8.35;;;;;;;0.05;51.75;101620.05;1786397;80;25809;-59
2022/02/03 19:22:26;;;;;;;16.85;8.25;;;;;;;0.06;51.48;101624.88;1786637;80;25680;-58
2022/02/03 19:27:05;;;;;;;16.80;6.35;;;;;;;0.09;51.62;101628.28;1792258;80;25808;-58
2022/02/03 20:08:48;;;;;;;16.75;6.03;;;;;;;0.17;52.51;101599.42;1792592;79;25814;-59
2022/02/03 20:11:09;;;;;;;24.05;7.62;;;;;;;0.15;52.33;101605.63;1823030;78;26679;-59
2022/02/03 20:13:35;;;;;;;21.07;7.92;;;;;;;0.19;52.44;101597.57;1792607;79;25747;-59
2022/02/03 20:16:05;;;;;;;30.80;10.80;;;;;;;0.24;52.24;101600.48;1824844;78;27497;-59
2022/02/03 20:18:32;;;;;;;18.82;6.67;;;;;;;0.25;52.22;101597.39;1792713;80;25493;-59
2022/02/03 20:20:59;;;;;;;15.53;6.97;;;;;;;0.25;52.24;101594.75;1792469;80;25777;-59
2022/02/03 20:23:26;;;;;;;13.00;7.47;;;;;;;0.28;52.29;101588.02;1792514;80;25839;-59
2022/02/03 20:25:58;;;;;;;16.82;8.35;;;;;;;0.26;52.22;101589.39;1791614;78;25745;-60
2022/02/03 20:28:27;;;;;;;14.85;6.95;;;;;;;0.26;52.25;101596.48;1825336;78;27587;-59
2022/02/03 20:30:55;;;;;;;10.35;5.67;;;;;;;0.25;52.40;101604.86;1792239;80;25770;-59
2022/02/03 20:33:23;;;;;;;9.88;5.65;;;;;;;0.15;52.53;101601.66;1825282;78;26004;-58
2022/02/03 20:35:50;;;;;;;17.10;6.12;;;;;;;0.12;52.65;101599.09;1792306;80;25810;-58
2022/02/03 20:38:17;;;;;;;13.88;7.05;;;;;;;0.19;52.74;101602.86;1824814;78;25761;-57
2022/02/03 20:40:46;;;;;;;17.92;7.90;;;;;;;0.20;52.77;101605.48;1794812;78;28165;-57
2022/02/03 20:43:14;;;;;;;19.10;7.40;;;;;;;0.18;52.70;101607.77;1824818;78;25835;-58
2022/02/03 20:45:43;;;;;;;18.05;9.05;;;;;;;0.22;52.80;101605.42;1824888;78;25777;-58
2022/02/03 20:48:11;;;;;;;20.75;8.90;;;;;;;0.29;52.76;101597.25;1825258;78;25741;-60
2022/02/03 20:50:39;;;;;;;17.48;7.83;;;;;;;0.33;52.66;101583.89;1791370;78;25800;-60
2022/02/03 20:53:08;;;;;;;13.78;6.25;;;;;;;0.37;52.75;101584.22;1789253;80;27354;-60
2022/02/03 20:55:34;;;;;;;13.83;7.42;;;;;;;0.42;52.84;101589.77;1788774;80;25698;-60
2022/02/03 20:58:01;;;;;;;18.27;8.80;;;;;;;0.46;52.74;101584.77;1789292;80;25733;-58
2022/02/03 21:00:38;;;;;;;21.45;7.80;;;;;;;0.44;52.70;101581.77;1803243;79;26603;-58
2022/02/03 21:05:24;;;;;;;16.48;6.83;;;;;;;0.20;52.87;101594.89;1792908;79;27470;-59
2022/02/03 21:07:52;;;;;;;11.55;6.00;;;;;;;0.10;53.18;101598.74;1792810;80;25788;-58
2022/02/03 21:10:25;;;;;;;14.38;6.12;;;;;;;-0.02;53.56;101606.61;1793304;79;25488;-60
2022/02/03 21:12:54;;;;;;;13.72;6.42;;;;;;;-0.06;53.51;101607.60;1792694;80;25811;-60
2022/02/03 21:15:26;;;;;;;15.68;7.15;;;;;;;-0.02;53.54;101615.40;1793252;79;25801;-59
2022/02/03 21:17:54;;;;;;;13.78;7.75;;;;;;;0.05;53.64;101612.55;1792773;80;28279;-60
2022/02/03 21:20:22;;;;;;;17.95;8.45;;;;;;;0.07;53.52;101605.00;1793220;80;26367;-60
2022/02/03 21:22:50;;;;;;;19.70;7.45;;;;;;;0.17;53.56;101600.75;1792841;80;25770;-58
2022/02/03 21:25:25;;;;;;;30.20;7.65;;;;;;;0.29;53.58;101612.24;1764995;80;25831;-58
2022/02/03 21:27:53;;;;;;;12.25;6.62;;;;;;;0.36;53.54;101601.01;1752558;81;25502;-58
2022/02/03 21:30:21;;;;;;;14.73;7.47;;;;;;;0.45;53.37;101606.00;1753498;81;28194;-58
2022/02/03 21:32:50;;;;;;;13.40;6.70;;;;;;;0.54;53.29;101603.05;1753443;81;25759;-60
2022/02/03 21:35:20;;;;;;;18.55;7.50;;;;;;;0.59;53.21;101609.05;1780487;80;25833;-59
2022/02/03 21:37:48;;;;;;;14.13;6.97;;;;;;;0.62;53.03;101606.31;1753252;81;25762;-58
2022/02/03 21:40:17;;;;;;;19.92;6.53;;;;;;;0.65;53.00;101605.80;1780492;80;25714;-58
2022/02/03 21:42:44;;;;;;;14.47;7.25;;;;;;;0.60;52.83;101608.61;1786668;80;27467;-59
2022/02/03 21:45:16;;;;;;;14.03;7.00;;;;;;;0.58;52.90;101615.25;1790265;80;25868;-58
2022/02/03 21:47:41;;;;;;;14.63;7.28;;;;;;;0.57;52.87;101608.70;1789835;80;25931;-58
2022/02/03 21:50:09;;;;;;;19.32;8.40;;;;;;;0.56;53.03;101613.14;1790376;80;25783;-59